createdAt,value
2022-10-18T00:00:07.851Z,30.50
2022-10-18T00:02:38.142Z,24.95
2022-10-18T00:05:05.629Z,23.65
2022-10-18T00:07:32.924Z,26.38
2022-10-18T00:10:00.048Z,24.48
2022-10-18T00:12:26.990Z,23.55
2022-10-18T00:14:54.008Z,23.05
2022-10-18T00:17:21.013Z,25.98
2022-10-18T00:19:49.227Z,24.58
2022-10-18T00:22:16.308Z,28.58
2022-10-18T00:24:43.307Z,23.88
2022-10-18T00:27:10.272Z,24.58
2022-10-18T00:29:37.262Z,20.45
2022-10-18T00:32:04.459Z,17.30
2022-10-18T00:34:31.596Z,20.95
2022-10-18T00:36:58.510Z,18.90
2022-10-18T00:39:25.487Z,18.45
2022-10-18T00:41:52.752Z,16.88
2022-10-18T00:44:25.810Z,15.77
2022-10-18T00:46:57.205Z,19.27
2022-10-18T00:49:27.927Z,15.00
2022-10-18T00:52:13.019Z,20.10
2022-10-18T00:54:43.017Z,15.32
2022-10-18T00:57:11.745Z,16.27
2022-10-18T00:59:39.384Z,20.23
2022-10-18T01:02:07.473Z,18.23
2022-10-18T01:04:34.878Z,14.48
2022-10-18T01:07:13.480Z,19.90
2022-10-18T01:10:08.268Z,25.48
2022-10-18T01:12:50.327Z,23.02
2022-10-18T01:15:31.692Z,19.15
2022-10-18T01:18:17.206Z,21.65
2022-10-18T01:20:53.730Z,20.08
2022-10-18T01:23:59.233Z,19.23
2022-10-18T01:26:41.220Z,22.80
2022-10-18T01:29:20.660Z,21.20
2022-10-18T01:32:01.307Z,20.92
2022-10-18T01:34:33.944Z,20.65
2022-10-18T01:37:04.649Z,22.02
2022-10-18T01:39:36.464Z,22.42
2022-10-18T01:42:07.673Z,22.83
2022-10-18T01:44:36.153Z,22.75
2022-10-18T01:47:06.817Z,26.67
2022-10-18T01:49:34.476Z,25.83
2022-10-18T01:52:01.652Z,21.65
2022-10-18T01:54:34.225Z,25.35
2022-10-18T01:57:07.219Z,24.48
2022-10-18T01:59:52.507Z,26.93
2022-10-18T02:02:45.575Z,26.38
2022-10-18T02:05:15.233Z,27.17
2022-10-18T02:07:42.134Z,23.80
2022-10-18T02:12:49.381Z,26.08
2022-10-18T02:15:21.026Z,23.08
2022-10-18T02:17:48.004Z,28.58
2022-10-18T02:20:19.705Z,32.75
2022-10-18T02:22:49.032Z,27.30
2022-10-18T02:25:23.586Z,22.92
2022-10-18T02:27:55.068Z,22.50
2022-10-18T02:30:30.530Z,26.05
2022-10-18T02:33:19.800Z,31.92
2022-10-18T02:35:54.720Z,28.25
2022-10-18T02:38:25.034Z,25.70
2022-10-18T02:40:52.227Z,25.50
2022-10-18T02:43:19.138Z,24.05
2022-10-18T02:45:46.190Z,24.27
2022-10-18T02:48:13.093Z,20.52
2022-10-18T02:50:40.280Z,28.75
2022-10-18T02:53:07.280Z,30.92
2022-10-18T02:55:34.528Z,33.47
2022-10-18T02:58:01.477Z,30.80
2022-10-18T03:00:28.452Z,28.13
2022-10-18T03:02:55.435Z,29.38
2022-10-18T03:05:22.403Z,26.60
2022-10-18T03:07:49.335Z,27.02
2022-10-18T03:10:16.331Z,23.02
2022-10-18T03:12:43.238Z,22.67
2022-10-18T03:15:10.492Z,25.00
2022-10-18T03:17:37.402Z,78.53
2022-10-18T03:20:04.667Z,42.70
2022-10-18T03:22:31.589Z,26.52
2022-10-18T03:24:58.519Z,28.00
2022-10-18T03:27:25.492Z,22.80
2022-10-18T03:29:52.586Z,25.73
2022-10-18T03:32:19.601Z,23.27
2022-10-18T03:34:46.572Z,30.40
2022-10-18T03:37:13.637Z,24.45
2022-10-18T03:39:40.606Z,23.23
2022-10-18T03:42:07.496Z,25.15
2022-10-18T03:44:34.451Z,26.55
2022-10-18T03:47:01.348Z,25.20
2022-10-18T03:49:28.346Z,31.63
2022-10-18T03:51:55.278Z,23.60
2022-10-18T03:54:22.232Z,31.88
2022-10-18T03:56:49.116Z,27.13
2022-10-18T03:59:17.189Z,26.90
2022-10-18T04:01:44.173Z,26.55
2022-10-18T04:04:11.182Z,27.60
2022-10-18T04:06:38.125Z,21.75
2022-10-18T04:09:07.877Z,26.85
2022-10-18T04:11:37.151Z,24.58
2022-10-18T04:14:04.268Z,23.67
2022-10-18T04:16:31.243Z,22.92
2022-10-18T04:18:58.210Z,23.75
2022-10-18T04:21:25.227Z,22.33
2022-10-18T04:23:52.191Z,19.17
2022-10-18T04:26:19.347Z,18.98
2022-10-18T04:28:46.272Z,20.20
2022-10-18T04:31:13.314Z,20.77
2022-10-18T04:33:40.410Z,22.15
2022-10-18T04:36:07.692Z,23.63
2022-10-18T04:38:34.827Z,30.65
2022-10-18T04:41:01.817Z,26.90
2022-10-18T04:43:28.886Z,28.02
2022-10-18T04:45:55.928Z,30.00
2022-10-18T04:48:22.933Z,30.30
2022-10-18T04:50:51.157Z,30.13
2022-10-18T04:53:18.894Z,33.53
2022-10-18T04:55:49.453Z,33.47
2022-10-18T04:58:19.899Z,33.75
2022-10-18T05:00:47.839Z,33.63
2022-10-18T05:03:14.943Z,32.67
2022-10-18T05:06:00.910Z,34.03
2022-10-18T05:08:29.752Z,35.38
2022-10-18T05:10:56.835Z,32.95
2022-10-18T05:13:23.892Z,30.77
2022-10-18T05:15:50.822Z,33.47
2022-10-18T05:18:18.114Z,25.48
2022-10-18T05:20:45.028Z,30.08
2022-10-18T05:23:12.054Z,29.83
2022-10-18T05:25:40.291Z,31.10
2022-10-18T05:28:10.950Z,29.30
2022-10-18T05:30:43.060Z,30.02
2022-10-18T05:33:10.256Z,26.98
2022-10-18T05:35:37.323Z,26.20
2022-10-18T05:38:07.510Z,29.67
2022-10-18T05:40:34.680Z,26.73
2022-10-18T05:43:01.558Z,22.67
2022-10-18T05:45:28.699Z,27.42
2022-10-18T05:47:55.607Z,31.58
2022-10-18T05:50:22.618Z,32.33
2022-10-18T05:52:49.559Z,40.45
2022-10-18T05:55:16.572Z,34.75
2022-10-18T05:57:43.447Z,28.35
2022-10-18T06:00:11.316Z,31.13
2022-10-18T06:02:42.102Z,29.38
2022-10-18T06:05:09.274Z,30.98
2022-10-18T06:07:36.407Z,38.30
2022-10-18T06:10:03.528Z,30.58
2022-10-18T06:12:30.466Z,26.55
2022-10-18T06:14:57.418Z,35.40
2022-10-18T06:17:25.915Z,30.63
2022-10-18T06:19:54.740Z,30.48
2022-10-18T06:22:21.679Z,25.35
2022-10-18T06:24:48.673Z,24.75
2022-10-18T06:27:15.643Z,28.08
2022-10-18T06:29:42.920Z,28.25
2022-10-18T06:32:09.875Z,25.90
2022-10-18T06:34:36.869Z,27.30
2022-10-18T06:37:03.783Z,34.10
2022-10-18T06:39:30.733Z,32.17
2022-10-18T06:41:57.696Z,36.72
2022-10-18T06:44:24.807Z,36.35
2022-10-18T06:46:53.497Z,41.28
2022-10-18T06:49:20.669Z,47.05
2022-10-18T06:51:47.623Z,54.35
2022-10-18T06:54:19.103Z,45.17
2022-10-18T06:56:46.739Z,49.25
2022-10-18T06:59:13.942Z,48.00
2022-10-18T07:01:40.903Z,48.58
2022-10-18T07:04:07.942Z,46.17
2022-10-18T07:06:34.914Z,47.35
2022-10-18T07:09:03.164Z,45.83
2022-10-18T07:11:30.154Z,55.13
2022-10-18T07:14:04.819Z,45.83
2022-10-18T07:16:33.240Z,49.17
2022-10-18T07:19:00.250Z,53.60
2022-10-18T07:21:27.689Z,52.58
2022-10-18T07:23:54.957Z,49.50
2022-10-18T07:26:29.924Z,47.80
2022-10-18T07:29:01.545Z,43.83
2022-10-18T07:31:29.441Z,43.67
2022-10-18T07:33:57.534Z,41.05
2022-10-18T07:36:25.671Z,44.85
2022-10-18T07:38:52.978Z,45.00
2022-10-18T07:41:20.660Z,51.55
2022-10-18T07:43:51.070Z,51.25
2022-10-18T07:46:19.591Z,52.47
2022-10-18T07:48:46.601Z,47.92
2022-10-18T07:51:14.072Z,56.53
2022-10-18T07:53:41.292Z,50.50
2022-10-18T07:56:17.344Z,54.80
2022-10-18T07:58:45.392Z,53.80
2022-10-18T08:01:13.839Z,50.15
2022-10-18T08:03:41.857Z,41.40
2022-10-18T08:06:11.077Z,42.47
2022-10-18T08:08:39.704Z,44.70
2022-10-18T08:11:10.414Z,40.40
2022-10-18T08:13:37.375Z,43.50
2022-10-18T08:16:10.000Z,44.03
2022-10-18T08:18:37.655Z,37.72
2022-10-18T08:21:06.780Z,39.63
2022-10-18T08:23:34.207Z,35.55
2022-10-18T08:26:02.900Z,36.55
2022-10-18T08:28:30.012Z,30.30
2022-10-18T08:30:57.164Z,35.45
2022-10-18T08:33:24.124Z,32.35
2022-10-18T08:36:02.172Z,33.88
2022-10-18T08:38:33.471Z,33.45
2022-10-18T08:41:51.908Z,35.47
2022-10-18T08:44:42.060Z,45.22
2022-10-18T08:47:19.682Z,34.30
2022-10-18T08:49:49.723Z,39.13
2022-10-18T08:52:37.208Z,35.45
2022-10-18T08:55:16.040Z,43.25
2022-10-18T08:57:43.644Z,36.85
2022-10-18T09:00:19.050Z,35.92
2022-10-18T09:02:57.770Z,40.03
2022-10-18T09:05:24.687Z,47.20
2022-10-18T09:08:24.246Z,46.95
2022-10-18T09:11:12.056Z,48.70
2022-10-18T09:14:03.564Z,52.08
2022-10-18T09:16:35.987Z,52.70
2022-10-18T09:19:33.630Z,49.08
2022-10-18T09:22:14.537Z,48.25
2022-10-18T09:24:52.623Z,55.88
2022-10-18T09:27:22.340Z,49.40
2022-10-18T09:30:04.053Z,48.38
2022-10-18T09:32:34.261Z,48.08
2022-10-18T09:35:23.864Z,46.72
2022-10-18T09:37:55.771Z,52.65
2022-10-18T09:40:29.127Z,54.47
2022-10-18T09:43:13.042Z,57.72
2022-10-18T09:45:43.084Z,55.17
2022-10-18T09:48:21.983Z,51.25
2022-10-18T09:51:12.214Z,46.45
2022-10-18T09:53:59.379Z,45.50
2022-10-18T09:56:41.777Z,48.08
2022-10-18T09:59:29.338Z,42.42
2022-10-18T10:01:56.525Z,43.25
2022-10-18T10:04:23.607Z,41.53
2022-10-18T10:06:52.960Z,41.45
2022-10-18T10:09:27.143Z,40.13
2022-10-18T10:11:55.548Z,36.83
2022-10-18T10:14:26.648Z,35.78
2022-10-18T10:17:02.526Z,34.95
2022-10-18T10:19:34.775Z,38.75
2022-10-18T10:22:08.949Z,37.95
2022-10-18T10:24:53.599Z,37.88
2022-10-18T10:27:28.959Z,35.75
2022-10-18T10:30:01.514Z,36.42
2022-10-18T10:32:44.432Z,37.20
2022-10-18T10:35:56.104Z,38.25
2022-10-18T10:38:25.217Z,35.30
2022-10-18T10:40:52.610Z,33.08
2022-10-18T10:43:39.745Z,33.08
2022-10-18T10:46:19.214Z,35.42
2022-10-18T10:49:08.434Z,34.30
2022-10-18T10:51:41.349Z,35.78
2022-10-18T10:54:15.138Z,39.70
2022-10-18T10:59:31.850Z,33.97
2022-10-18T11:02:35.556Z,36.28
2022-10-18T11:05:25.529Z,34.30
2022-10-18T11:08:12.160Z,33.72
2022-10-18T11:10:56.176Z,33.67
2022-10-18T11:16:04.759Z,33.53
2022-10-18T11:18:37.346Z,36.03
2022-10-18T11:21:33.956Z,33.55
2022-10-18T11:24:03.002Z,34.30
2022-10-18T11:27:07.787Z,36.67
2022-10-18T11:29:59.253Z,31.58
2022-10-18T11:32:41.671Z,31.27
2022-10-18T11:35:27.208Z,31.60
2022-10-18T11:38:18.806Z,34.35
2022-10-18T11:40:52.466Z,28.33
2022-10-18T11:44:01.289Z,29.92
2022-10-18T11:46:42.581Z,23.88
2022-10-18T11:49:21.802Z,26.33
2022-10-18T11:52:08.465Z,19.80
2022-10-18T11:54:51.618Z,14.40
2022-10-18T11:57:50.696Z,15.48
2022-10-18T12:00:28.891Z,13.98
2022-10-18T12:03:14.265Z,18.33
2022-10-18T12:05:45.750Z,20.73
2022-10-18T12:08:18.388Z,14.35
2022-10-18T12:11:04.540Z,15.65
2022-10-18T12:13:37.389Z,22.10
2022-10-18T12:16:07.005Z,17.67
2022-10-18T12:18:36.156Z,19.15
2022-10-18T12:21:05.320Z,11.02
2022-10-18T12:23:36.733Z,12.90
2022-10-18T12:26:06.739Z,15.57
2022-10-18T12:29:02.434Z,14.68
2022-10-18T12:31:39.144Z,14.32
2022-10-18T12:34:33.717Z,11.63
2022-10-18T12:37:22.291Z,10.55
2022-10-18T12:40:15.668Z,10.55
2022-10-18T12:42:48.548Z,10.98
2022-10-18T12:45:33.134Z,9.68
2022-10-18T12:48:06.848Z,16.23
2022-10-18T12:53:03.379Z,11.30
2022-10-18T12:55:54.068Z,9.65
2022-10-18T12:58:23.497Z,10.02
2022-10-18T13:00:50.523Z,9.98
2022-10-18T13:03:18.032Z,8.82
2022-10-18T13:05:55.862Z,11.82
2022-10-18T13:08:35.170Z,13.75
2022-10-18T13:11:02.083Z,13.18
2022-10-18T13:13:51.099Z,9.52
2022-10-18T13:16:22.196Z,10.68
2022-10-18T13:18:59.869Z,7.88
2022-10-18T13:21:58.985Z,12.43
2022-10-18T13:25:06.837Z,11.75
2022-10-18T13:27:53.146Z,7.97
2022-10-18T13:30:48.112Z,8.13
2022-10-18T13:33:40.433Z,8.60
2022-10-18T13:36:24.952Z,7.80
2022-10-18T13:38:57.809Z,7.85
2022-10-18T13:41:32.698Z,9.63
2022-10-18T13:44:24.467Z,8.27
2022-10-18T13:46:54.324Z,7.60
2022-10-18T13:49:39.187Z,9.00
2022-10-18T13:52:21.144Z,8.38
2022-10-18T13:55:24.643Z,7.80
2022-10-18T13:58:11.179Z,5.70
2022-10-18T14:00:56.372Z,6.85
2022-10-18T14:04:14.425Z,6.88
2022-10-18T14:06:44.300Z,4.00
2022-10-18T14:09:40.286Z,4.90
2022-10-18T14:12:16.811Z,5.90
2022-10-18T14:14:47.935Z,7.18
2022-10-18T14:17:52.884Z,9.57
2022-10-18T14:20:30.582Z,9.13
2022-10-18T14:23:09.476Z,8.73
2022-10-18T14:25:38.203Z,8.18
2022-10-18T14:28:13.171Z,9.52
2022-10-18T14:30:58.106Z,8.18
2022-10-18T14:33:36.917Z,8.15
2022-10-18T14:36:39.946Z,6.75
2022-10-18T14:39:16.510Z,7.25
2022-10-18T14:41:54.626Z,8.07
2022-10-18T14:44:29.098Z,8.77
2022-10-18T14:46:59.062Z,7.80
2022-10-18T14:49:26.637Z,7.28
2022-10-18T14:51:56.687Z,12.20
2022-10-18T14:54:31.571Z,7.10
2022-10-18T14:57:03.326Z,6.63
2022-10-18T14:59:34.807Z,5.43
2022-10-18T15:02:07.743Z,9.13
2022-10-18T15:04:34.789Z,7.75
2022-10-18T15:07:07.316Z,8.98
2022-10-18T15:09:36.364Z,6.88
2022-10-18T15:12:06.571Z,9.88
2022-10-18T15:14:34.811Z,7.63
2022-10-18T15:17:22.327Z,7.82
2022-10-18T15:19:59.329Z,5.78
2022-10-18T15:22:32.371Z,11.25
2022-10-18T15:25:06.015Z,7.07
2022-10-18T15:27:36.795Z,5.95
2022-10-18T15:30:29.299Z,9.73
2022-10-18T15:32:59.828Z,11.63
2022-10-18T15:35:28.921Z,7.22
2022-10-18T15:38:04.336Z,9.05
2022-10-18T15:40:35.032Z,5.43
2022-10-18T15:43:28.482Z,6.25
2022-10-18T15:46:05.048Z,7.00
2022-10-18T15:48:35.683Z,12.65
2022-10-18T15:51:05.349Z,9.27
2022-10-18T15:53:52.823Z,6.13
2022-10-18T15:56:35.419Z,6.35
2022-10-18T15:59:06.171Z,9.82
2022-10-18T16:01:35.824Z,8.05
2022-10-18T16:04:09.175Z,5.38
2022-10-18T16:06:38.615Z,8.65
2022-10-18T16:09:06.008Z,6.93
2022-10-18T16:11:33.075Z,6.25
2022-10-18T16:14:00.662Z,4.75
2022-10-18T16:16:29.256Z,11.18
2022-10-18T16:18:56.691Z,6.65
2022-10-18T16:21:28.656Z,6.20
2022-10-18T16:23:56.068Z,5.57
2022-10-18T16:26:24.334Z,7.05
2022-10-18T16:28:51.614Z,9.75
2022-10-18T16:31:21.237Z,12.73
2022-10-18T16:33:49.894Z,6.53
2022-10-18T16:36:23.802Z,7.30
2022-10-18T16:38:51.579Z,9.38
2022-10-18T16:41:18.755Z,9.75
2022-10-18T16:43:47.453Z,6.05
2022-10-18T16:46:20.804Z,8.30
2022-10-18T16:48:49.258Z,9.93
2022-10-18T16:51:16.922Z,9.80
2022-10-18T16:53:44.300Z,10.57
2022-10-18T16:56:30.468Z,8.45
2022-10-18T16:58:58.381Z,6.93
2022-10-18T17:01:26.446Z,10.63
2022-10-18T17:03:54.143Z,8.88
2022-10-18T17:06:24.271Z,27.35
2022-10-18T17:08:52.333Z,106.28
2022-10-18T17:11:20.728Z,70.88
2022-10-18T17:13:48.018Z,68.20
2022-10-18T17:16:30.278Z,45.42
2022-10-18T17:18:59.691Z,17.40
2022-10-18T17:21:29.297Z,10.68
2022-10-18T17:24:00.615Z,10.25
2022-10-18T17:26:29.235Z,7.95
2022-10-18T17:29:00.205Z,10.23
2022-10-18T17:31:28.550Z,7.65
2022-10-18T17:33:55.621Z,8.77
2022-10-18T17:36:23.057Z,8.98
2022-10-18T17:38:51.735Z,7.53
2022-10-18T17:41:19.018Z,7.03
2022-10-18T17:43:46.035Z,8.13
2022-10-18T17:46:14.338Z,6.93
2022-10-18T17:48:42.298Z,8.32
2022-10-18T17:51:11.594Z,8.30
2022-10-18T17:53:39.230Z,8.10
2022-10-18T17:56:07.842Z,7.40
2022-10-18T17:58:34.936Z,12.82
2022-10-18T18:01:11.842Z,7.82
2022-10-18T18:03:38.939Z,11.00
2022-10-18T18:06:17.562Z,8.18
2022-10-18T18:08:45.347Z,8.32
2022-10-18T18:11:12.390Z,9.40
2022-10-18T18:13:39.604Z,10.30
2022-10-18T18:16:16.310Z,12.48
2022-10-18T18:18:43.664Z,17.00
2022-10-18T18:21:11.225Z,7.80
2022-10-18T18:23:38.720Z,12.77
2022-10-18T18:26:06.354Z,9.95
2022-10-18T18:28:34.843Z,15.48
2022-10-18T18:31:14.070Z,13.00
2022-10-18T18:33:41.703Z,15.57
2022-10-18T18:36:09.533Z,13.90
2022-10-18T18:38:38.867Z,15.10
2022-10-18T18:41:07.464Z,15.27
2022-10-18T18:43:35.248Z,17.80
2022-10-18T18:46:02.668Z,21.83
2022-10-18T18:48:32.202Z,24.83
2022-10-18T18:50:59.389Z,17.92
2022-10-18T18:53:29.507Z,20.08
2022-10-18T18:56:10.784Z,17.45
2022-10-18T18:58:39.359Z,15.73
2022-10-18T19:01:22.113Z,15.55
2022-10-18T19:03:52.019Z,19.00
2022-10-18T19:06:31.049Z,17.63
2022-10-18T19:09:04.082Z,17.15
2022-10-18T19:11:37.840Z,30.47
2022-10-18T19:14:07.118Z,26.60
2022-10-18T19:16:38.585Z,19.42
2022-10-18T19:19:12.654Z,15.40
2022-10-18T19:21:42.834Z,20.00
2022-10-18T19:24:10.016Z,16.48
2022-10-18T19:26:45.372Z,15.93
2022-10-18T19:29:15.043Z,20.85
2022-10-18T19:31:42.420Z,14.90
2022-10-18T19:34:11.931Z,21.00
2022-10-18T19:36:41.020Z,15.02
2022-10-18T19:39:10.006Z,13.80
2022-10-18T19:41:37.028Z,18.98
2022-10-18T19:44:04.022Z,16.63
2022-10-18T19:46:30.981Z,21.88
2022-10-18T19:48:58.687Z,16.15
2022-10-18T19:51:28.347Z,19.58
2022-10-18T19:53:56.684Z,17.38
2022-10-18T19:56:25.637Z,18.52
2022-10-18T19:58:53.273Z,19.30
2022-10-18T20:01:20.260Z,17.40
2022-10-18T20:03:47.926Z,15.60
2022-10-18T20:06:15.535Z,31.13
2022-10-18T20:11:21.044Z,14.05
2022-10-18T20:13:48.474Z,17.23
2022-10-18T20:16:17.398Z,22.90
2022-10-18T20:18:44.659Z,17.15
2022-10-18T20:21:13.909Z,21.15
2022-10-18T20:23:42.802Z,17.98
2022-10-18T20:26:18.089Z,23.90
2022-10-18T20:28:49.117Z,27.85
2022-10-18T20:31:19.695Z,20.48
2022-10-18T20:33:48.101Z,25.60
2022-10-18T20:36:17.336Z,24.10
2022-10-18T20:38:46.349Z,23.55
2022-10-18T20:41:14.656Z,22.73
2022-10-18T20:43:41.997Z,24.42
2022-10-18T20:46:09.934Z,23.20
2022-10-18T20:48:38.758Z,24.90
2022-10-18T20:51:12.705Z,24.20
2022-10-18T20:53:40.394Z,22.65
2022-10-18T20:56:13.068Z,27.90
2022-10-18T20:58:41.879Z,26.40
2022-10-18T21:01:28.907Z,23.40
2022-10-18T21:03:57.870Z,31.67
2022-10-18T21:06:34.076Z,23.65
2022-10-18T21:09:07.278Z,25.52
2022-10-18T21:11:39.444Z,20.23
2022-10-18T21:14:07.875Z,32.70
2022-10-18T21:16:35.588Z,28.20
2022-10-18T21:19:08.146Z,23.75
2022-10-18T21:21:35.273Z,27.08
2022-10-18T21:24:05.467Z,30.20
2022-10-18T21:26:35.366Z,26.17
2022-10-18T21:29:03.650Z,38.30
2022-10-18T21:31:33.047Z,28.42
2022-10-18T21:34:02.837Z,25.73
2022-10-18T21:36:36.026Z,18.65
2022-10-18T21:39:04.502Z,18.30
2022-10-18T21:41:32.082Z,20.60
2022-10-18T21:43:59.147Z,23.20
2022-10-18T21:46:27.055Z,23.88
2022-10-18T21:48:55.564Z,21.63
2022-10-18T21:51:26.099Z,19.17
2022-10-18T21:53:55.755Z,21.92
2022-10-18T21:56:28.767Z,19.45
2022-10-18T21:58:56.702Z,20.20
2022-10-18T22:01:26.686Z,20.08
2022-10-18T22:03:56.539Z,19.02
2022-10-18T22:06:24.410Z,21.15
2022-10-18T22:08:56.151Z,21.33
2022-10-18T22:11:26.707Z,24.85
2022-10-18T22:13:54.142Z,19.20
2022-10-18T22:16:21.143Z,20.30
2022-10-18T22:18:48.938Z,18.75
2022-10-18T22:21:17.233Z,17.88
2022-10-18T22:23:46.963Z,19.92
2022-10-18T22:26:19.762Z,23.55
2022-10-18T22:28:46.877Z,27.02
2022-10-18T22:31:18.835Z,21.25
2022-10-18T22:33:46.696Z,19.13
2022-10-18T22:36:14.132Z,21.85
2022-10-18T22:38:41.087Z,20.33
2022-10-18T22:41:10.181Z,19.45
2022-10-18T22:43:37.577Z,20.63
2022-10-18T22:46:09.259Z,25.83
2022-10-18T22:48:36.744Z,19.55
2022-10-18T22:51:04.601Z,18.33
2022-10-18T22:53:32.540Z,19.15
2022-10-18T22:55:59.616Z,24.60
2022-10-18T22:58:26.909Z,23.48
2022-10-18T23:01:07.063Z,17.88
2022-10-18T23:03:34.795Z,20.90
2022-10-18T23:06:01.867Z,23.65
2022-10-18T23:08:29.323Z,18.02
2022-10-18T23:10:58.369Z,19.25
2022-10-18T23:13:26.711Z,22.08
2022-10-18T23:15:53.823Z,25.98
2022-10-18T23:18:20.767Z,22.05
2022-10-18T23:20:47.671Z,18.17
2022-10-18T23:23:14.635Z,23.35
2022-10-18T23:25:41.544Z,17.95
2022-10-18T23:28:08.493Z,14.43
2022-10-18T23:30:38.099Z,16.40
2022-10-18T23:33:05.055Z,18.17
2022-10-18T23:35:31.975Z,19.40
2022-10-18T23:37:58.943Z,20.58
2022-10-18T23:40:25.835Z,16.17
2022-10-18T23:42:52.799Z,19.58
2022-10-18T23:45:19.731Z,21.20
2022-10-18T23:47:46.678Z,21.77
2022-10-18T23:50:13.564Z,18.13
2022-10-18T23:52:40.525Z,19.75
2022-10-18T23:55:08.082Z,21.15
2022-10-18T23:57:35.317Z,17.48
